METAR

METAR LDZA 260630Z 00000KT CAVOK 05/04 Q1023 NOSIG =
METAR LDSP 260630Z 03028G40KT 9999 SCT055 10/M02 Q1013 NOSIG=
METAR LDDU 260630Z 03025KT 350V060 CAVOK 13/M01 Q1010 TEMPO 03023G33KT =
METAR LDZD 260630Z 06012KT 010V110 9999 BKN075 09/M03 Q1015 TEMPO 06018G30KT =
METAR LDPL 260630Z 06012KT 9999 FEW053 09/M01 Q1018 NOSIG=
METAR LDOS 260630Z 34011KT CAVOK 06/01 Q1021=
METAR LDRI 260630Z 05026G49KT 360V090 9999 FEW037 08/M03 Q1016=

TAF

TAF LDZA 260525Z 2606/2706 03006KT CAVOK
                 TX11/2613Z TN02/2704Z
           TEMPO 2606/2616 05012KT=
TAF LDSP 260525Z 2606/2706 05020G35KT CAVOK
                 TX12/2612Z TN07/2506Z
    PROB30 TEMPO 2606/2610 05025G40KT TSRA FEW035CB BKN050
           BECMG 2610/2612 05015G25KT
    PROB40 TEMPO 2618/2706 05020G35KT=
TAF LDDU 260525Z 2606/2706 03020G33KT 9999 SCT050
                 TX15/2610Z TN10/2705Z
    PROB30 TEMPO 2606/2612 08015KT SHRA FEW030TCU BKN040
           BECMG 2612/2614 03025G35KT=
TAF LDZD 260525Z 2606/2706 06018G33KT CAVOK
                 TX12/2613Z TN05/2705Z
           TEMPO 2610/2706 06015KT=
TAF LDPL 260525Z 2606/2706 06015KT CAVOK
                 TX13/2612Z TN07/2704Z
           TEMPO 2618/2706 06015G25KT=
TAF LDOS 260525Z 2606/2706 32010KT CAVOK
                 TX13/2613Z TN04/2704Z=
TAF LDRI 260642Z 2607/2706 05025G50KT CAVOK
                 TX13/2612Z TN08/2607Z
           BECMG 2608/2611 04015KT
           TEMPO 2610/2706 VRB10KT
    PROB30 TEMPO 2610/2706 04015G25KT=

SIGMET

LDZO SIGMET 2 VALID 260600/260800 LDZA-
LDZO ZAGREB FIR SEV TURB FCST WI N4538 E01431 - N4532 E01321 - N4349
E01511 - N4212 E01818 - N4231 E01828 - N4538 E01431 SFC/7000FT STNR
NC=

AIRMET

LDZO AIRMET 1 VALID 260300/260700 LDZA-
LDZO ZAGREB FIR MOD ICE FCST WI N4221 E01519 - N4341 E01847 - N4523
E01618 - N4451 E01341 - N4221 E01519 ABV 3000FT MOV SE 10KT NC=
LDZO AIRMET 2 VALID 260300/260700 LDZA-
LDZO ZAGREB FIR MT OBSC OBS WI N4555 E01512 - N4500 E01739 - N4301
E01725 - N4423 E01515 - N4527 E01359 - N4555 E01512 ABV 2000FT STNR
NC=
LDZO AIRMET 3 VALID 260700/261100 LDZA-
LDZO ZAGREB FIR MOD ICE FCST WI N4340 E01418 - N4443 E01554 - N4225
E01834 - N4154 E01643 - N4340 E01418 ABV 6000FT MOV SE 10KT NC=
LDZO AIRMET 4 VALID 260700/261100 LDZA-
LDZO ZAGREB FIR MT OBSC OBS WI N4546 E01421 - N4435 E01459 - N4301
E01725 - N4512 E01548 - N4546 E01421 ABV 3000FT STNR WKN=

Napomena

Ukoliko se brzina i smjer vjetra ne mogu odrediti zbog privremenog kvara sustava/indikatora,
informacija o vjetru u METAR izvješću bit će prikazana kao "/////KT".

 

Disclaimer

 

In case of temporary system/sensor failure, wind speed and direction data will be represented as "/////KT" in METAR report.

 

         

      Politika MET podataka